TimeCDT,TemperatureF,Dew PointF,Humidity,Sea Level PressureIn,VisibilityMPH,Wind Direction,Wind SpeedMPH,Gust SpeedMPH,PrecipitationIn,Events,Conditions,WindDirDegrees,DateUTC
12:52 AM,82.0,68.0,62,29.90,10.0,SSE,8.1,-,N/A,,Clear,150,2013-07-13 05:52:00
1:52 AM,81.0,68.0,65,29.91,10.0,SE,8.1,-,N/A,,Clear,140,2013-07-13 06:52:00
2:52 AM,81.0,68.0,65,29.90,10.0,South,11.5,-,N/A,,Clear,170,2013-07-13 07:52:00
3:52 AM,79.0,68.0,69,29.91,10.0,SSE,9.2,-,N/A,,Clear,160,2013-07-13 08:52:00
4:52 AM,78.1,68.0,71,29.90,10.0,SSE,8.1,-,N/A,,Clear,160,2013-07-13 09:52:00
5:52 AM,77.0,68.0,74,29.90,10.0,South,9.2,-,N/A,,Clear,180,2013-07-13 10:52:00
6:52 AM,77.0,68.0,74,29.92,10.0,South,9.2,-,N/A,,Clear,190,2013-07-13 11:52:00
7:52 AM,79.0,68.0,69,29.92,10.0,South,10.4,-,N/A,,Clear,180,2013-07-13 12:52:00
8:52 AM,84.0,68.0,58,29.91,10.0,South,12.7,-,N/A,,Clear,190,2013-07-13 13:52:00
9:52 AM,88.0,66.9,49,29.91,10.0,SSW,20.7,-,N/A,,Clear,200,2013-07-13 14:52:00
10:52 AM,93.0,66.0,41,29.90,10.0,SSW,18.4,25.3,N/A,,Clear,200,2013-07-13 15:52:00
11:52 AM,96.1,66.0,37,29.90,10.0,South,17.3,21.9,N/A,,Clear,180,2013-07-13 16:52:00
12:52 PM,98.1,66.0,35,29.89,10.0,South,17.3,23.0,N/A,,Clear,170,2013-07-13 17:52:00
1:52 PM,98.1,64.0,33,29.87,10.0,South,6.9,18.4,N/A,,Clear,180,2013-07-13 18:52:00
2:52 PM,102.0,64.9,30,29.86,10.0,South,13.8,19.6,N/A,,Clear,180,2013-07-13 19:52:00
3:52 PM,100.0,63.0,29,29.84,10.0,SSE,11.5,18.4,N/A,,Clear,160,2013-07-13 20:52:00
4:52 PM,99.0,64.9,33,29.83,10.0,SE,11.5,17.3,N/A,,Clear,140,2013-07-13 21:52:00
5:52 PM,100.0,66.9,34,29.82,10.0,ESE,17.3,24.2,N/A,,Clear,120,2013-07-13 22:52:00
6:52 PM,95.0,66.0,38,29.81,10.0,SE,16.1,-,N/A,,Clear,140,2013-07-13 23:52:00
7:52 PM,93.9,64.9,38,29.81,10.0,SE,15.0,21.9,N/A,,Clear,140,2013-07-14 00:52:00
8:52 PM,90.0,66.0,45,29.83,10.0,SE,10.4,-,N/A,,Clear,140,2013-07-14 01:52:00
9:52 PM,88.0,66.0,48,29.85,10.0,SE,12.7,-,N/A,,Clear,140,2013-07-14 02:52:00
10:52 PM,86.0,64.9,49,29.86,10.0,SE,11.5,-,N/A,,Clear,140,2013-07-14 03:52:00
11:52 PM,84.9,66.0,53,29.86,10.0,SE,12.7,-,N/A,,Clear,140,2013-07-14 04:52:00